Unityville, Pennsylvania
Current Conditions -  °F | °C
As of 6:54 PM on Friday 31 Oct 2014 (Local Time) from KIPT Reporting Station
Overcast Overcast  
Wind Chill: 48°   Ceiling: 6500
Heat Index: 48°   Visibility: 10mi
Dew Point: 35°   Wind: 3mph
Humidity: 61%   Direction: 220°SW
Pressure: 29.89"   Gusts: NA
Location:  41.23°N, 76.52°W
Report Text: KIPT 312254Z 22003KT 10SM OVC065 09/02 A2989 RMK AO2 SLP124 T00890017
Loading
Personal Weather Stations






























Interactive Weather Map
Tropical Storm Tracking
New forecast layout! Learn more

10-Day Weather Forecast

Advertisements
Track Severe Weather on mobile